sensor_id;sensor_type;location;lat;lon;timestamp;pressure;altitude;pressure_sealevel;temperature;humidity
61740;BME280;47645;45.288;12.038;2023-05-23T00:00:11;1012.1001218166474;;;20.559765625;66.33725806337421
61740;BME280;47645;45.288;12.038;2023-05-23T00:10:12;1012.0404982280737;;;20.5087890625;66.4254106380101
61740;BME280;47645;45.288;12.038;2023-05-23T00:20:13;1012.088230360913;;;20.2845703125;67.11286330486008
61740;BME280;47645;45.288;12.038;2023-05-23T00:30:14;1011.9549462231879;;;20.23359375;67.57566152118586
61740;BME280;47645;45.288;12.038;2023-05-23T00:40:16;1012.055332676746;;;20.065234375;68.15762613379596
61740;BME280;47645;45.288;12.038;2023-05-23T00:50:17;1012.0382212087186;;;19.9990234375;67.62931493303194
61740;BME280;47645;45.288;12.038;2023-05-23T01:00:19;1012.0920162167138;;;19.953125;68.07619926105865
61740;BME280;47645;45.288;12.038;2023-05-23T01:10:22;1012.1463902778929;;;19.5810546875;68.72346948778203
61740;BME280;47645;45.288;12.038;2023-05-23T01:20:21;1012.1243606618465;;;19.3517578125;70.80339560972125
61740;BME280;47645;45.288;12.038;2023-05-23T01:30:23;1012.0627587331718;;;19.112109375;71.307767824423
61740;BME280;47645;45.288;12.038;2023-05-23T01:40:24;1012.1634197100889;;;19.2701171875;69.59462579095397
61740;BME280;47645;45.288;12.038;2023-05-23T01:50:24;1012.0170585810457;;;18.694140625;73.24531701312532
61740;BME280;47645;45.288;12.038;2023-05-23T02:00:25;1011.9416846360355;;;18.8470703125;72.03817048243653
61740;BME280;47645;45.288;12.038;2023-05-23T02:10:26;1012.025125588015;;;18.9642578125;70.14129260638366
61740;BME280;47645;45.288;12.038;2023-05-23T02:20:28;1012.0252275577632;;;18.80625;73.0547687689275
61740;BME280;47645;45.288;12.038;2023-05-23T02:30:29;1011.9182999475394;;;18.6431640625;71.32598230063223
61740;BME280;47645;45.288;12.038;2023-05-23T02:40:30;1011.9326844238194;;;18.286328125;73.07207202032666
61740;BME280;47645;45.288;12.038;2023-05-23T02:50:31;1011.8992922032561;;;18.2251953125;78.2923024429364
61740;BME280;47645;45.288;12.038;2023-05-23T03:00:32;1011.9614608617488;;;18.1845703125;74.47843136787567
61740;BME280;47645;45.288;12.038;2023-05-23T03:10:33;1011.8980569814034;;;18.148828125;75.93987139525973
61740;BME280;47645;45.288;12.038;2023-05-23T03:20:34;1011.879259611059;;;18.1896484375;75.1456737627991
61740;BME280;47645;45.288;12.038;2023-05-23T03:30:36;1011.8924654282796;;;18.1029296875;75.68092818323112
61740;BME280;47645;45.288;12.038;2023-05-23T03:40:37;1011.980250406185;;;18.13359375;72.8458899200867
61740;BME280;47645;45.288;12.038;2023-05-23T03:50:38;1011.9128115840242;;;18.3068359375;72.13974326777776
61740;BME280;47645;45.288;12.038;2023-05-23T04:00:39;1011.8620253754577;;;18.0826171875;78.14427096082038
61740;BME280;47645;45.288;12.038;2023-05-23T04:10:40;1011.8743834327875;;;18.4341796875;72.36994593752341
61740;BME280;47645;45.288;12.038;2023-05-23T04:20:41;1011.9778870732299;;;18.3119140625;76.47781293288122
61740;BME280;47645;45.288;12.038;2023-05-23T04:30:42;1012.0722716894036;;;18.3578125;75.63387827221264
61740;BME280;47645;45.288;12.038;2023-05-23T04:40:44;1012.0348671171683;;;18.5515625;76.99114331952808
61740;BME280;47645;45.288;12.038;2023-05-23T04:50:47;1012.0726652616414;;;18.6228515625;76.9910935664365
61740;BME280;47645;45.288;12.038;2023-05-23T05:00:46;1012.0503353549342;;;19.0203125;78.73350447680426
61740;BME280;47645;45.288;12.038;2023-05-23T05:10:47;1012.1350409013965;;;19.1732421875;77.37770988507413
61740;BME280;47645;45.288;12.038;2023-05-23T05:20:48;1012.0145720143829;;;19.3873046875;77.7022501580681
61740;BME280;47645;45.288;12.038;2023-05-23T05:30:53;1011.9772881765529;;;19.74921875;75.9345419954084
61740;BME280;47645;45.288;12.038;2023-05-23T05:40:51;1011.9450992038355;;;19.9990234375;74.79717086013395
61740;BME280;47645;45.288;12.038;2023-05-23T05:50:52;1011.9219410181951;;;20.141796875;74.90415333067286
61740;BME280;47645;45.288;12.038;2023-05-23T06:00:54;1011.8466296962565;;;20.4375;72.98320924008289
61740;BME280;47645;45.288;12.038;2023-05-23T06:10:56;1011.8732862261808;;;20.8044921875;71.84468324201062
61740;BME280;47645;45.288;12.038;2023-05-23T06:20:55;1011.8734639557646;;;20.901171875;71.33335559488323
61740;BME280;47645;45.288;12.038;2023-05-23T06:30:56;1011.9357671295069;;;21.1255859375;70.0268705959584
61740;BME280;47645;45.288;12.038;2023-05-23T06:40:58;1011.9500332861681;;;21.2275390625;69.90259003220142
61740;BME280;47645;45.288;12.038;2023-05-23T06:50:59;1011.9587760172709;;;21.619921875;69.87749383933749
61740;BME280;47645;45.288;12.038;2023-05-23T07:01:00;1012.0841244026219;;;22.04296875;66.5269556076224
61740;BME280;47645;45.288;12.038;2023-05-23T07:11:01;1012.0426857194358;;;22.1603515625;64.89278663319482
61740;BME280;47645;45.288;12.038;2023-05-23T07:21:03;1011.9852426941138;;;22.338671875;62.32519532935876
61740;BME280;47645;45.288;12.038;2023-05-23T07:31:06;1012.0110558360221;;;22.965625;61.30055910875817
61740;BME280;47645;45.288;12.038;2023-05-23T07:41:05;1011.9780246983847;;;23.3021484375;59.1216027795736
61740;BME280;47645;45.288;12.038;2023-05-23T07:51:07;1011.9069531048227;;;23.7609375;57.79962491091438
61740;BME280;47645;45.288;12.038;2023-05-23T08:01:08;1011.8774163775549;;;24.0158203125;56.76125910977842
61740;BME280;47645;45.288;12.038;2023-05-23T08:11:09;1011.8918716837627;;;24.1482421875;55.09483651254659
61740;BME280;47645;45.288;12.038;2023-05-23T08:21:10;1011.7793611465074;;;24.8720703125;53.97472441330891
61740;BME280;47645;45.288;12.038;2023-05-23T08:31:11;1011.765117394447;;;25.2697265625;54.81308431332926
61740;BME280;47645;45.288;12.038;2023-05-23T08:41:18;1011.8006568861839;;;25.728515625;50.36362129318201
61740;BME280;47645;45.288;12.038;2023-05-23T08:51:15;1011.7773122115942;;;26.06484375;54.11947908784377
61740;BME280;47645;45.288;12.038;2023-05-23T09:01:19;1011.8791397257462;;;26.4064453125;51.9033686782687
61740;BME280;47645;45.288;12.038;2023-05-23T09:11:17;1011.8114593924419;;;26.865234375;50.86363633343784
61740;BME280;47645;45.288;12.038;2023-05-23T09:21:18;1011.8651371796437;;;27.3087890625;47.02869414357731
61740;BME280;47645;45.288;12.038;2023-05-23T09:31:25;1011.8545827742537;;;27.9408203125;47.660362845477934
61740;BME280;47645;45.288;12.038;2023-05-23T09:41:22;1011.712407564639;;;28.3283203125;44.28753974447219
61740;BME280;47645;45.288;12.038;2023-05-23T09:51:23;1011.6970091121416;;;28.4658203125;46.395757284760585
61740;BME280;47645;45.288;12.038;2023-05-23T10:01:25;1011.651549467178;;;29.1693359375;45.596830989662784
61740;BME280;47645;45.288;12.038;2023-05-23T10:21:31;1011.597542113654;;;30.1736328125;38.85531378442669
61740;BME280;47645;45.288;12.038;2023-05-23T10:31:30;1011.5147693770565;;;30.8974609375;38.96232372531633
61740;BME280;47645;45.288;12.038;2023-05-23T10:41:37;1011.4360457663856;;;31.427734375;40.55384327887615
61740;BME280;47645;45.288;12.038;2023-05-23T10:51:37;1011.4146542431641;;;31.9732421875;36.63229899173952
61740;BME280;47645;45.288;12.038;2023-05-23T11:01:38;1011.3953534994777;;;32.5900390625;38.05978242127229
61740;BME280;47645;45.288;12.038;2023-05-23T11:12:09;1011.357151008174;;;33.5126953125;35.79075805297757
61740;BME280;47645;45.288;12.038;2023-05-23T11:21:39;1011.3185404825412;;;33.7216796875;36.75891744858531
61740;BME280;47645;45.288;12.038;2023-05-23T11:31:40;1011.1432165342381;;;33.8951171875;35.8504212179767
61740;BME280;47645;45.288;12.038;2023-05-23T11:41:43;1011.13906109592;;;34.2978515625;34.98488965002797
61740;BME280;47645;45.288;12.038;2023-05-23T11:51:44;1011.1846195991874;;;34.5119140625;37.1642819689947
61740;BME280;47645;45.288;12.038;2023-05-23T12:01:46;1011.1607619934287;;;34.7822265625;34.41885828335399
61740;BME280;47645;45.288;12.038;2023-05-23T12:11:48;1011.0489199637466;;;35.24609375;34.37470694766014
61740;BME280;47645;45.288;12.038;2023-05-23T12:21:50;1010.9976312409501;;;35.3837890625;30.642215565345357
61740;BME280;47645;45.288;12.038;2023-05-23T12:31:53;1010.8822825874151;;;35.55703125;34.26794470759682
61740;BME280;47645;45.288;12.038;2023-05-23T12:42:06;1010.7483507604303;;;35.3123046875;29.393738533910266
61740;BME280;47645;45.288;12.038;2023-05-23T12:51:56;1010.6760975877062;;;35.7814453125;32.54910894422796
61740;BME280;47645;45.288;12.038;2023-05-23T13:02:00;1010.611663082412;;;35.7099609375;33.00336656630951
61740;BME280;47645;45.288;12.038;2023-05-23T13:12:00;1010.5511194941276;;;35.6794921875;31.41436410013827
61740;BME280;47645;45.288;12.038;2023-05-23T13:22:04;1010.4755453604374;;;35.949609375;32.15242133968566
61740;BME280;47645;45.288;12.038;2023-05-23T13:32:05;1010.3463193901473;;;35.8169921875;31.100794831549877
61740;BME280;47645;45.288;12.038;2023-05-23T13:42:07;1010.2798943121746;;;35.648828125;33.21297745303677
61740;BME280;47645;45.288;12.038;2023-05-23T13:52:09;1010.2249696738086;;;35.55703125;32.833814300354454
61740;BME280;47645;45.288;12.038;2023-05-23T14:02:10;1010.2444039057325;;;35.5671875;32.631578704104534
61740;BME280;47645;45.288;12.038;2023-05-23T14:12:13;1010.2806040080035;;;35.6080078125;32.56509459902093
61740;BME280;47645;45.288;12.038;2023-05-23T14:22:14;1010.286129272793;;;35.873046875;31.85040722444076
61740;BME280;47645;45.288;12.038;2023-05-23T14:32:16;1010.1970143355018;;;35.261328125;30.264549444867747
61740;BME280;47645;45.288;12.038;2023-05-23T14:42:18;1010.2526594526571;;;35.1951171875;32.28292016429403
61740;BME280;47645;45.288;12.038;2023-05-23T14:52:20;1010.2851249547416;;;34.8994140625;32.396462288667834
61740;BME280;47645;45.288;12.038;2023-05-23T15:02:22;1010.2492118797029;;;35.1390625;32.81339329683043
61740;BME280;47645;45.288;12.038;2023-05-23T15:12:24;1010.3476997676928;;;35.6181640625;25.241246252461586
61740;BME280;47645;45.288;12.038;2023-05-23T15:22:26;1010.1992208812111;;;35.241015625;26.644991356912435
61740;BME280;47645;45.288;12.038;2023-05-23T15:32:28;1010.1027386432063;;;34.639453125;33.49500794567184
61740;BME280;47645;45.288;12.038;2023-05-23T15:42:30;1009.9458918326012;;;34.8228515625;31.084797411990955
61740;BME280;47645;45.288;12.038;2023-05-23T15:52:32;1009.9193071748881;;;35.65390625;28.35897569855539
61740;BME280;47645;45.288;12.038;2023-05-23T16:02:34;1009.9241696565398;;;35.4857421875;27.225943494189156
61740;BME280;47645;45.288;12.038;2023-05-23T16:12:36;1009.8998317020383;;;34.1857421875;32.133472027514856
61740;BME280;47645;45.288;12.038;2023-05-23T16:22:39;1009.7540830455182;;;35.0880859375;25.95906630437522
61740;BME280;47645;45.288;12.038;2023-05-23T16:32:39;1009.7583849623179;;;34.1908203125;32.732793088183975
61740;BME280;47645;45.288;12.038;2023-05-23T16:42:43;1009.7971963214711;;;34.35390625;32.076115349425656
61740;BME280;47645;45.288;12.038;2023-05-23T16:52:44;1009.8463471096594;;;33.0744140625;34.66762396577526
61740;BME280;47645;45.288;12.038;2023-05-23T17:02:46;1009.9166928051785;;;32.620703125;35.750342039261255
61740;BME280;47645;45.288;12.038;2023-05-23T17:12:48;1009.9130958410096;;;32.16171875;36.50023949817724
61740;BME280;47645;45.288;12.038;2023-05-23T17:22:50;1009.9279080914279;;;31.6927734375;37.130696063097915
61740;BME280;47645;45.288;12.038;2023-05-23T17:32:51;1010.0177518906287;;;31.2646484375;38.471549640981195
61740;BME280;47645;45.288;12.038;2023-05-23T17:42:53;1010.0192713843509;;;30.51015625;37.56613338648702
61740;BME280;47645;45.288;12.038;2023-05-23T17:52:55;1010.1517285898643;;;30.015625;40.088488597134486
61740;BME280;47645;45.288;12.038;2023-05-23T18:02:57;1010.2510035606902;;;29.434375;42.649803506609366
61740;BME280;47645;45.288;12.038;2023-05-23T18:12:59;1010.3702312106249;;;28.9298828125;44.86427673342463
61740;BME280;47645;45.288;12.038;2023-05-23T18:23:01;1010.4708934986414;;;28.4556640625;46.821665468753054
61740;BME280;47645;45.288;12.038;2023-05-23T18:33:02;1010.6674248596725;;;27.971484375;50.206267616344874
61740;BME280;47645;45.288;12.038;2023-05-23T18:43:04;1010.8569663048696;;;27.4412109375;53.62476865844415
61740;BME280;47645;45.288;12.038;2023-05-23T18:53:06;1010.9186762402381;;;27.0080078125;54.35620769522125
61740;BME280;47645;45.288;12.038;2023-05-23T19:03:07;1010.9803877946802;;;26.6103515625;54.76189783228621
61740;BME280;47645;45.288;12.038;2023-05-23T19:13:10;1011.0080812531603;;;26.340234375;55.35580753146526
61740;BME280;47645;45.288;12.038;2023-05-23T19:23:11;1011.28729254585;;;25.9017578125;56.580298090792525
61740;BME280;47645;45.288;12.038;2023-05-23T19:33:18;1011.2215676922846;;;25.738671875;57.23938492254292
61740;BME280;47645;45.288;12.038;2023-05-23T19:43:15;1011.4097518258652;;;25.3970703125;57.764157281462985
61740;BME280;47645;45.288;12.038;2023-05-23T19:53:17;1011.4229341704271;;;25.2390625;58.104822627755695
61740;BME280;47645;45.288;12.038;2023-05-23T20:03:17;1011.510663329874;;;24.9689453125;58.78098167744819
61740;BME280;47645;45.288;12.038;2023-05-23T20:13:19;1011.5855345161899;;;24.7498046875;59.596429626804685
61740;BME280;47645;45.288;12.038;2023-05-23T20:23:21;1011.8258336976692;;;24.010546875;64.88499016955463
61740;BME280;47645;45.288;12.038;2023-05-23T20:33:22;1012.0576664593826;;;22.8025390625;69.8871492901783
61740;BME280;47645;45.288;12.038;2023-05-23T20:43:23;1012.1979061302668;;;23.57734375;64.22411744070489
61740;BME280;47645;45.288;12.038;2023-05-23T20:53:25;1012.3187581080128;;;22.7515625;71.74280983353898
61740;BME280;47645;45.288;12.038;2023-05-23T21:03:26;1012.2859791205565;;;22.7515625;68.00685570755506
61740;BME280;47645;45.288;12.038;2023-05-23T21:13:28;1012.3262688359231;;;23.3734375;63.90881809227274
61740;BME280;47645;45.288;12.038;2023-05-23T21:23:30;1012.2645631852799;;;23.5875;62.4273983916951
61740;BME280;47645;45.288;12.038;2023-05-23T21:33:31;1012.3379779841671;;;22.9810546875;66.96635253860104
61740;BME280;47645;45.288;12.038;2023-05-23T21:43:33;1012.4160159975359;;;22.736328125;72.2852983324302
61740;BME280;47645;45.288;12.038;2023-05-23T21:53:34;1012.317573626033;;;23.0880859375;63.92276075893315
61740;BME280;47645;45.288;12.038;2023-05-23T22:03:35;1012.3476526229451;;;23.133984375;63.305290205579254
61740;BME280;47645;45.288;12.038;2023-05-23T22:13:37;1012.430639819003;;;22.97578125;64.37505553662835
61740;BME280;47645;45.288;12.038;2023-05-23T22:23:38;1012.4582138959111;;;22.8484375;63.66360460076209
61740;BME280;47645;45.288;12.038;2023-05-23T22:33:40;1012.3231130435863;;;22.5986328125;64.71649891657995
61740;BME280;47645;45.288;12.038;2023-05-23T22:43:41;1012.2411718172381;;;22.435546875;64.98787893735408
61740;BME280;47645;45.288;12.038;2023-05-23T22:53:43;1012.1569320377898;;;22.522265625;64.16787216912995
61740;BME280;47645;45.288;12.038;2023-05-23T23:03:44;1012.0236719559414;;;22.328515625;68.57474488678376
61740;BME280;47645;45.288;12.038;2023-05-23T23:13:45;1012.0623734381525;;;21.910546875;66.91956626807291
61740;BME280;47645;45.288;12.038;2023-05-23T23:23:47;1011.9444000101906;;;22.0482421875;66.04747998446902
61740;BME280;47645;45.288;12.038;2023-05-23T23:33:48;1011.9477875447595;;;21.7525390625;69.22371485003855
61740;BME280;47645;45.288;12.038;2023-05-23T23:43:49;1011.99176908471;;;21.38046875;73.84632721697228
61740;BME280;47645;45.288;12.038;2023-05-23T23:53:51;1011.9057172741892;;;21.5486328125;67.40006767721076
